MacCan, Canada
Current Conditions -  °F | °C
As of 6:26 PM on Wednesday 26 Nov 2014 (Local Time) from CYQM Reporting Station
Light Snow Light Snow  
Wind Chill: 32°   Ceiling: 1200
Heat Index: 32°   Visibility: 1.5mi
Dew Point: 30°   Wind: 3mph
Humidity: 93%   Direction: 170°S
Pressure: 30.19"   Gusts: NA
Location:  45.72°N, 64.25°W
Report Text: CYQM 262226Z 17003KT 1 1/2SM -SN OVC012 00/M01 A3019 RMK SF8 PRESFR SLP226
Loading
Personal Weather Stations






























Interactive Weather Map New forecast layout! Learn more

10-Day Weather Forecast

Advertisements
Track Severe Weather on mobile